マナグア の空港の天気 - METARとTAF

マナグア国際空港 ( MNMG / MGA ) - ニカラグア マナグア県マナグア
飛行場実況気象(Metar)
観測時間07/15 04:00 CST (07/15 10:00 UTC)
風向・風速南南東 2m/s
視程10km以上
天気現象
少しの雲 雲底高度 640m
全天の8割程度の雲 雲底高度 9140m
気温25℃
湿度89%
気圧1009hPa
METARMNMG 151000Z 16004KT 9999 FEW021 BKN300 25/23 Q1009 A2988 NOSIG
過去の天気等 Google飛行場航空写真 Wunderground天気予報

過去48時間のMETAR

飛行場予報(TAF)
発表時間: 7/14 23:30 CST (7/15 05:30 UTC)
予報対象時間: 15日0時 CST ~ 16日0時 CST
風向・風速静穏
視程10km以上
少しの雲 雲底高度 670m
全天の4割程度の雲 雲底高度 9140m
15日7時 CST ~ 15日12時 CST に徐々に
風向・風速東北東 4m/s
15日15時 CST ~ 15日20時 CST に徐々に
風向・風速東南東 2m/s
視程7000m
天気現象弱い雷雨
少しの積乱雲 雲底高度 550m
全天の4割程度の雲 雲底高度 1830m
TAF MNMG 150530Z 1506/1606 00000KT 9999 FEW022 SCT300
BECMG 1513/1518 06008KT
BECMG 1521/16021 11004KT 7000 -TSRA FEW018CB SCT060